sensor_id;sensor_type;location;lat;lon;timestamp;temperature;humidity
3194;DHT22;1608;50.860;13.466;2022-12-22T00:02:22;10.10;99.90
3194;DHT22;1608;50.860;13.466;2022-12-22T00:05:12;10.10;99.90
3194;DHT22;1608;50.860;13.466;2022-12-22T00:07:58;10.10;99.90
3194;DHT22;1608;50.860;13.466;2022-12-22T00:10:43;10.10;99.90
3194;DHT22;1608;50.860;13.466;2022-12-22T00:13:27;10.10;99.90
3194;DHT22;1608;50.860;13.466;2022-12-22T00:16:11;10.10;99.90
3194;DHT22;1608;50.860;13.466;2022-12-22T00:18:56;10.10;99.90
3194;DHT22;1608;50.860;13.466;2022-12-22T00:21:40;10.00;99.90
3194;DHT22;1608;50.860;13.466;2022-12-22T00:24:25;10.00;99.90
3194;DHT22;1608;50.860;13.466;2022-12-22T00:27:13;10.10;99.90
3194;DHT22;1608;50.860;13.466;2022-12-22T00:29:57;10.00;99.90
3194;DHT22;1608;50.860;13.466;2022-12-22T00:32:42;10.00;99.90
3194;DHT22;1608;50.860;13.466;2022-12-22T00:35:26;9.90;99.90
3194;DHT22;1608;50.860;13.466;2022-12-22T00:38:15;9.90;99.90
3194;DHT22;1608;50.860;13.466;2022-12-22T00:41:01;9.80;99.90
3194;DHT22;1608;50.860;13.466;2022-12-22T00:43:45;9.80;99.90
3194;DHT22;1608;50.860;13.466;2022-12-22T00:46:30;9.70;99.90
3194;DHT22;1608;50.860;13.466;2022-12-22T00:49:15;9.60;99.90
3194;DHT22;1608;50.860;13.466;2022-12-22T00:52:00;9.60;99.90
3194;DHT22;1608;50.860;13.466;2022-12-22T00:54:44;9.50;99.90
3194;DHT22;1608;50.860;13.466;2022-12-22T00:57:30;9.50;99.90
3194;DHT22;1608;50.860;13.466;2022-12-22T01:00:15;9.40;99.90
3194;DHT22;1608;50.860;13.466;2022-12-22T01:03:00;9.40;99.90
3194;DHT22;1608;50.860;13.466;2022-12-22T01:05:45;9.30;99.90
3194;DHT22;1608;50.860;13.466;2022-12-22T01:08:30;8.70;99.90
3194;DHT22;1608;50.860;13.466;2022-12-22T01:11:14;9.20;99.90
3194;DHT22;1608;50.860;13.466;2022-12-22T01:14:00;9.20;99.90
3194;DHT22;1608;50.860;13.466;2022-12-22T01:16:44;9.30;99.90
3194;DHT22;1608;50.860;13.466;2022-12-22T01:19:28;9.40;99.90
3194;DHT22;1608;50.860;13.466;2022-12-22T01:22:16;9.30;99.90
3194;DHT22;1608;50.860;13.466;2022-12-22T01:25:04;9.30;99.90
3194;DHT22;1608;50.860;13.466;2022-12-22T01:27:52;9.20;99.90
3194;DHT22;1608;50.860;13.466;2022-12-22T01:30:37;9.20;99.90
3194;DHT22;1608;50.860;13.466;2022-12-22T01:33:21;9.10;99.90
3194;DHT22;1608;50.860;13.466;2022-12-22T01:36:06;9.20;99.90
3194;DHT22;1608;50.860;13.466;2022-12-22T01:38:50;9.10;99.90
3194;DHT22;1608;50.860;13.466;2022-12-22T01:41:34;9.10;99.90
3194;DHT22;1608;50.860;13.466;2022-12-22T01:44:19;9.10;99.90
3194;DHT22;1608;50.860;13.466;2022-12-22T01:47:33;9.00;99.90
3194;DHT22;1608;50.860;13.466;2022-12-22T01:50:25;9.00;99.90
3194;DHT22;1608;50.860;13.466;2022-12-22T01:53:15;8.90;99.90
3194;DHT22;1608;50.860;13.466;2022-12-22T01:56:01;8.90;99.90
3194;DHT22;1608;50.860;13.466;2022-12-22T01:58:49;9.00;99.90
3194;DHT22;1608;50.860;13.466;2022-12-22T02:01:35;9.00;99.90
3194;DHT22;1608;50.860;13.466;2022-12-22T02:04:23;9.00;99.90
3194;DHT22;1608;50.860;13.466;2022-12-22T02:07:18;9.00;99.90
3194;DHT22;1608;50.860;13.466;2022-12-22T02:10:17;9.00;99.90
3194;DHT22;1608;50.860;13.466;2022-12-22T02:13:14;9.10;99.90
3194;DHT22;1608;50.860;13.466;2022-12-22T02:16:04;9.10;99.90
3194;DHT22;1608;50.860;13.466;2022-12-22T02:18:56;9.10;99.90
3194;DHT22;1608;50.860;13.466;2022-12-22T02:21:52;9.20;99.90
3194;DHT22;1608;50.860;13.466;2022-12-22T02:24:42;9.30;99.90
3194;DHT22;1608;50.860;13.466;2022-12-22T02:27:29;9.40;99.90
3194;DHT22;1608;50.860;13.466;2022-12-22T02:30:15;9.50;99.90
3194;DHT22;1608;50.860;13.466;2022-12-22T02:32:59;9.50;99.90
3194;DHT22;1608;50.860;13.466;2022-12-22T02:35:47;9.60;99.90
3194;DHT22;1608;50.860;13.466;2022-12-22T02:38:40;9.70;99.90
3194;DHT22;1608;50.860;13.466;2022-12-22T02:41:34;9.70;99.90
3194;DHT22;1608;50.860;13.466;2022-12-22T02:44:28;9.80;99.90
3194;DHT22;1608;50.860;13.466;2022-12-22T02:47:18;9.80;99.90
3194;DHT22;1608;50.860;13.466;2022-12-22T02:50:10;9.80;99.90
3194;DHT22;1608;50.860;13.466;2022-12-22T02:52:56;9.80;99.90
3194;DHT22;1608;50.860;13.466;2022-12-22T02:55:41;9.80;99.90
3194;DHT22;1608;50.860;13.466;2022-12-22T02:58:24;9.80;99.90
3194;DHT22;1608;50.860;13.466;2022-12-22T03:01:10;9.80;99.90
3194;DHT22;1608;50.860;13.466;2022-12-22T03:03:54;9.70;99.90
3194;DHT22;1608;50.860;13.466;2022-12-22T03:06:39;9.60;99.90
3194;DHT22;1608;50.860;13.466;2022-12-22T03:09:23;9.50;99.90
3194;DHT22;1608;50.860;13.466;2022-12-22T03:12:07;9.50;99.90
3194;DHT22;1608;50.860;13.466;2022-12-22T03:14:51;9.50;99.90
3194;DHT22;1608;50.860;13.466;2022-12-22T03:17:36;9.40;99.90
3194;DHT22;1608;50.860;13.466;2022-12-22T03:20:21;9.40;99.90
3194;DHT22;1608;50.860;13.466;2022-12-22T03:23:06;9.30;99.90
3194;DHT22;1608;50.860;13.466;2022-12-22T03:25:51;9.30;99.90
3194;DHT22;1608;50.860;13.466;2022-12-22T03:28:19;9.30;99.90
3194;DHT22;1608;50.860;13.466;2022-12-22T03:30:52;9.30;99.90
3194;DHT22;1608;50.860;13.466;2022-12-22T03:33:21;9.30;99.90
3194;DHT22;1608;50.860;13.466;2022-12-22T03:35:48;9.30;99.90
3194;DHT22;1608;50.860;13.466;2022-12-22T03:38:14;9.30;99.90
3194;DHT22;1608;50.860;13.466;2022-12-22T03:40:42;9.20;99.90
3194;DHT22;1608;50.860;13.466;2022-12-22T03:43:10;9.30;99.90
3194;DHT22;1608;50.860;13.466;2022-12-22T03:45:55;9.40;99.90
3194;DHT22;1608;50.860;13.466;2022-12-22T03:48:49;9.40;99.90
3194;DHT22;1608;50.860;13.466;2022-12-22T03:51:30;9.30;99.90
3194;DHT22;1608;50.860;13.466;2022-12-22T03:53:57;9.50;99.90
3194;DHT22;1608;50.860;13.466;2022-12-22T03:56:24;9.30;99.90
3194;DHT22;1608;50.860;13.466;2022-12-22T03:58:51;9.40;99.90
3194;DHT22;1608;50.860;13.466;2022-12-22T04:01:18;9.50;99.90
3194;DHT22;1608;50.860;13.466;2022-12-22T04:03:44;9.60;99.90
3194;DHT22;1608;50.860;13.466;2022-12-22T04:06:12;9.30;99.90
3194;DHT22;1608;50.860;13.466;2022-12-22T04:08:39;9.40;99.90
3194;DHT22;1608;50.860;13.466;2022-12-22T04:11:07;9.40;99.90
3194;DHT22;1608;50.860;13.466;2022-12-22T04:13:51;9.40;99.90
3194;DHT22;1608;50.860;13.466;2022-12-22T04:16:18;9.50;99.90
3194;DHT22;1608;50.860;13.466;2022-12-22T04:18:45;7.90;99.90
3194;DHT22;1608;50.860;13.466;2022-12-22T04:21:13;9.60;99.90
3194;DHT22;1608;50.860;13.466;2022-12-22T04:23:40;9.60;99.90
3194;DHT22;1608;50.860;13.466;2022-12-22T04:26:07;9.60;99.90
3194;DHT22;1608;50.860;13.466;2022-12-22T04:28:34;9.60;99.90
3194;DHT22;1608;50.860;13.466;2022-12-22T04:31:01;9.60;99.90
3194;DHT22;1608;50.860;13.466;2022-12-22T04:33:28;9.50;99.90
3194;DHT22;1608;50.860;13.466;2022-12-22T04:35:54;9.50;99.90
3194;DHT22;1608;50.860;13.466;2022-12-22T04:38:23;9.50;99.90
3194;DHT22;1608;50.860;13.466;2022-12-22T04:40:49;9.50;99.90
3194;DHT22;1608;50.860;13.466;2022-12-22T04:43:16;9.40;99.90
3194;DHT22;1608;50.860;13.466;2022-12-22T04:45:43;9.40;99.90
3194;DHT22;1608;50.860;13.466;2022-12-22T04:48:10;9.30;99.90
3194;DHT22;1608;50.860;13.466;2022-12-22T04:50:37;9.40;99.90
3194;DHT22;1608;50.860;13.466;2022-12-22T04:53:04;9.40;99.90
3194;DHT22;1608;50.860;13.466;2022-12-22T04:55:32;9.40;99.90
3194;DHT22;1608;50.860;13.466;2022-12-22T04:57:59;9.40;99.90
3194;DHT22;1608;50.860;13.466;2022-12-22T05:00:26;9.40;99.90
3194;DHT22;1608;50.860;13.466;2022-12-22T05:02:53;9.40;99.90
3194;DHT22;1608;50.860;13.466;2022-12-22T05:05:19;9.50;99.90
3194;DHT22;1608;50.860;13.466;2022-12-22T05:07:46;9.40;99.90
3194;DHT22;1608;50.860;13.466;2022-12-22T05:10:13;9.40;99.90
3194;DHT22;1608;50.860;13.466;2022-12-22T05:12:41;9.40;99.90
3194;DHT22;1608;50.860;13.466;2022-12-22T05:15:20;9.60;99.90
3194;DHT22;1608;50.860;13.466;2022-12-22T05:17:47;9.60;99.90
3194;DHT22;1608;50.860;13.466;2022-12-22T05:20:14;9.70;99.90
3194;DHT22;1608;50.860;13.466;2022-12-22T05:22:41;9.80;99.90
3194;DHT22;1608;50.860;13.466;2022-12-22T05:25:08;9.90;99.90
3194;DHT22;1608;50.860;13.466;2022-12-22T05:27:35;9.80;99.90
3194;DHT22;1608;50.860;13.466;2022-12-22T05:30:05;9.80;99.90
3194;DHT22;1608;50.860;13.466;2022-12-22T05:32:32;9.90;99.90
3194;DHT22;1608;50.860;13.466;2022-12-22T05:34:58;9.80;99.90
3194;DHT22;1608;50.860;13.466;2022-12-22T05:37:25;9.80;99.90
3194;DHT22;1608;50.860;13.466;2022-12-22T05:39:52;9.80;99.90
3194;DHT22;1608;50.860;13.466;2022-12-22T05:42:19;9.80;99.90
3194;DHT22;1608;50.860;13.466;2022-12-22T05:45:01;9.70;99.90
3194;DHT22;1608;50.860;13.466;2022-12-22T05:47:29;9.70;99.90
3194;DHT22;1608;50.860;13.466;2022-12-22T05:49:56;9.80;99.90
3194;DHT22;1608;50.860;13.466;2022-12-22T05:52:23;10.00;99.90
3194;DHT22;1608;50.860;13.466;2022-12-22T05:54:49;9.80;99.90
3194;DHT22;1608;50.860;13.466;2022-12-22T05:57:16;9.90;99.90
3194;DHT22;1608;50.860;13.466;2022-12-22T05:59:43;9.90;99.90
3194;DHT22;1608;50.860;13.466;2022-12-22T06:02:10;9.70;99.90
3194;DHT22;1608;50.860;13.466;2022-12-22T06:04:38;9.80;99.90
3194;DHT22;1608;50.860;13.466;2022-12-22T06:07:05;9.70;99.90
3194;DHT22;1608;50.860;13.466;2022-12-22T06:09:31;9.70;99.90
3194;DHT22;1608;50.860;13.466;2022-12-22T06:11:58;9.60;99.90
3194;DHT22;1608;50.860;13.466;2022-12-22T06:14:25;9.60;99.90
3194;DHT22;1608;50.860;13.466;2022-12-22T06:16:52;9.50;99.90
3194;DHT22;1608;50.860;13.466;2022-12-22T06:19:19;9.40;99.90
3194;DHT22;1608;50.860;13.466;2022-12-22T06:21:47;9.40;99.90
3194;DHT22;1608;50.860;13.466;2022-12-22T06:24:14;9.50;99.90
3194;DHT22;1608;50.860;13.466;2022-12-22T06:26:40;9.40;99.90
3194;DHT22;1608;50.860;13.466;2022-12-22T06:29:07;9.50;99.90
3194;DHT22;1608;50.860;13.466;2022-12-22T06:31:34;9.40;99.90
3194;DHT22;1608;50.860;13.466;2022-12-22T06:34:01;9.40;99.90
3194;DHT22;1608;50.860;13.466;2022-12-22T06:36:28;9.70;99.90
3194;DHT22;1608;50.860;13.466;2022-12-22T06:38:56;9.50;99.90
3194;DHT22;1608;50.860;13.466;2022-12-22T06:41:23;9.50;99.90
3194;DHT22;1608;50.860;13.466;2022-12-22T06:44:04;9.50;99.90
3194;DHT22;1608;50.860;13.466;2022-12-22T06:46:31;9.50;99.90
3194;DHT22;1608;50.860;13.466;2022-12-22T06:48:58;9.50;99.90
3194;DHT22;1608;50.860;13.466;2022-12-22T06:51:24;9.60;99.90
3194;DHT22;1608;50.860;13.466;2022-12-22T06:53:51;9.60;99.90
3194;DHT22;1608;50.860;13.466;2022-12-22T06:56:19;9.60;99.90
3194;DHT22;1608;50.860;13.466;2022-12-22T06:58:46;9.60;99.90
3194;DHT22;1608;50.860;13.466;2022-12-22T07:01:13;9.50;99.90
3194;DHT22;1608;50.860;13.466;2022-12-22T07:03:40;9.40;99.90
3194;DHT22;1608;50.860;13.466;2022-12-22T07:06:06;9.40;99.90
3194;DHT22;1608;50.860;13.466;2022-12-22T07:08:33;9.40;99.90
3194;DHT22;1608;50.860;13.466;2022-12-22T07:11:00;9.40;99.90
3194;DHT22;1608;50.860;13.466;2022-12-22T07:13:30;9.40;99.90
3194;DHT22;1608;50.860;13.466;2022-12-22T07:15:58;9.30;99.90
3194;DHT22;1608;50.860;13.466;2022-12-22T07:18:26;9.30;99.90
3194;DHT22;1608;50.860;13.466;2022-12-22T07:20:53;9.30;99.90
3194;DHT22;1608;50.860;13.466;2022-12-22T07:23:20;9.30;99.90
3194;DHT22;1608;50.860;13.466;2022-12-22T07:25:47;9.20;99.90
3194;DHT22;1608;50.860;13.466;2022-12-22T07:28:14;9.20;99.90
3194;DHT22;1608;50.860;13.466;2022-12-22T07:30:42;9.20;99.90
3194;DHT22;1608;50.860;13.466;2022-12-22T07:33:08;9.20;99.90
3194;DHT22;1608;50.860;13.466;2022-12-22T07:35:35;9.10;99.90
3194;DHT22;1608;50.860;13.466;2022-12-22T07:38:02;9.10;99.90
3194;DHT22;1608;50.860;13.466;2022-12-22T07:40:29;9.10;99.90
3194;DHT22;1608;50.860;13.466;2022-12-22T07:42:56;9.20;99.90
3194;DHT22;1608;50.860;13.466;2022-12-22T07:45:23;9.30;99.90
3194;DHT22;1608;50.860;13.466;2022-12-22T07:47:51;9.40;99.90
3194;DHT22;1608;50.860;13.466;2022-12-22T07:50:19;9.40;99.90
3194;DHT22;1608;50.860;13.466;2022-12-22T07:52:53;9.60;99.90
3194;DHT22;1608;50.860;13.466;2022-12-22T07:55:20;9.80;99.90
3194;DHT22;1608;50.860;13.466;2022-12-22T07:57:47;9.70;99.90
3194;DHT22;1608;50.860;13.466;2022-12-22T08:00:15;9.80;99.90
3194;DHT22;1608;50.860;13.466;2022-12-22T08:02:42;9.80;99.90
3194;DHT22;1608;50.860;13.466;2022-12-22T08:05:11;9.90;99.90
3194;DHT22;1608;50.860;13.466;2022-12-22T08:07:38;9.90;99.90
3194;DHT22;1608;50.860;13.466;2022-12-22T08:10:06;9.90;99.90
3194;DHT22;1608;50.860;13.466;2022-12-22T08:12:33;9.90;99.90
3194;DHT22;1608;50.860;13.466;2022-12-22T08:15:00;9.90;99.90
3194;DHT22;1608;50.860;13.466;2022-12-22T08:17:27;9.90;99.90
3194;DHT22;1608;50.860;13.466;2022-12-22T08:19:54;9.90;99.90
3194;DHT22;1608;50.860;13.466;2022-12-22T08:22:23;9.90;99.90
3194;DHT22;1608;50.860;13.466;2022-12-22T08:24:50;10.00;99.90
3194;DHT22;1608;50.860;13.466;2022-12-22T08:27:20;10.10;99.90
3194;DHT22;1608;50.860;13.466;2022-12-22T08:29:51;10.30;99.90
3194;DHT22;1608;50.860;13.466;2022-12-22T08:32:19;10.50;99.90
3194;DHT22;1608;50.860;13.466;2022-12-22T08:34:47;10.70;99.90
3194;DHT22;1608;50.860;13.466;2022-12-22T08:37:16;10.80;99.90
3194;DHT22;1608;50.860;13.466;2022-12-22T08:39:49;10.70;99.90
3194;DHT22;1608;50.860;13.466;2022-12-22T08:42:18;10.70;99.90
3194;DHT22;1608;50.860;13.466;2022-12-22T08:44:47;10.70;99.90
3194;DHT22;1608;50.860;13.466;2022-12-22T08:47:17;10.60;99.90
3194;DHT22;1608;50.860;13.466;2022-12-22T08:49:44;10.60;99.90
3194;DHT22;1608;50.860;13.466;2022-12-22T08:52:11;10.60;99.90
3194;DHT22;1608;50.860;13.466;2022-12-22T08:54:38;10.50;99.90
3194;DHT22;1608;50.860;13.466;2022-12-22T08:57:06;10.50;99.90
3194;DHT22;1608;50.860;13.466;2022-12-22T08:59:33;10.50;99.90
3194;DHT22;1608;50.860;13.466;2022-12-22T09:02:00;10.30;99.90
3194;DHT22;1608;50.860;13.466;2022-12-22T09:04:30;10.30;99.90
3194;DHT22;1608;50.860;13.466;2022-12-22T09:06:58;10.30;99.90
3194;DHT22;1608;50.860;13.466;2022-12-22T09:09:30;10.50;99.90
3194;DHT22;1608;50.860;13.466;2022-12-22T09:11:57;10.40;99.90
3194;DHT22;1608;50.860;13.466;2022-12-22T09:14:25;10.50;99.90
3194;DHT22;1608;50.860;13.466;2022-12-22T09:16:52;10.70;99.90
3194;DHT22;1608;50.860;13.466;2022-12-22T09:19:18;10.80;99.90
3194;DHT22;1608;50.860;13.466;2022-12-22T09:21:45;11.00;99.90
3194;DHT22;1608;50.860;13.466;2022-12-22T09:24:12;11.20;99.90
3194;DHT22;1608;50.860;13.466;2022-12-22T09:26:39;11.50;99.90
3194;DHT22;1608;50.860;13.466;2022-12-22T09:29:07;11.70;99.90
3194;DHT22;1608;50.860;13.466;2022-12-22T09:31:35;11.80;99.90
3194;DHT22;1608;50.860;13.466;2022-12-22T09:34:02;11.90;99.90
3194;DHT22;1608;50.860;13.466;2022-12-22T09:36:30;12.00;99.90
3194;DHT22;1608;50.860;13.466;2022-12-22T09:38:58;12.30;99.90
3194;DHT22;1608;50.860;13.466;2022-12-22T09:41:29;12.40;99.90
3194;DHT22;1608;50.860;13.466;2022-12-22T09:43:57;12.40;99.90
3194;DHT22;1608;50.860;13.466;2022-12-22T09:46:29;12.40;99.90
3194;DHT22;1608;50.860;13.466;2022-12-22T09:48:58;12.50;99.90
3194;DHT22;1608;50.860;13.466;2022-12-22T09:51:25;12.50;99.90
3194;DHT22;1608;50.860;13.466;2022-12-22T09:53:56;12.60;99.90
3194;DHT22;1608;50.860;13.466;2022-12-22T09:56:24;12.70;99.90
3194;DHT22;1608;50.860;13.466;2022-12-22T10:01:36;12.60;99.90
3194;DHT22;1608;50.860;13.466;2022-12-22T10:04:11;12.50;99.90
3194;DHT22;1608;50.860;13.466;2022-12-22T10:06:46;12.30;99.90
3194;DHT22;1608;50.860;13.466;2022-12-22T10:09:17;12.20;99.90
3194;DHT22;1608;50.860;13.466;2022-12-22T10:11:51;12.10;99.90
3194;DHT22;1608;50.860;13.466;2022-12-22T10:14:19;12.00;99.90
3194;DHT22;1608;50.860;13.466;2022-12-22T10:16:46;12.00;99.90
3194;DHT22;1608;50.860;13.466;2022-12-22T10:19:14;12.00;99.90
3194;DHT22;1608;50.860;13.466;2022-12-22T10:21:41;12.10;99.90
3194;DHT22;1608;50.860;13.466;2022-12-22T10:24:16;12.10;99.90
3194;DHT22;1608;50.860;13.466;2022-12-22T10:26:43;12.00;99.90
3194;DHT22;1608;50.860;13.466;2022-12-22T10:29:12;12.00;99.90
3194;DHT22;1608;50.860;13.466;2022-12-22T10:31:56;12.10;99.90
3194;DHT22;1608;50.860;13.466;2022-12-22T10:34:25;12.10;99.90
3194;DHT22;1608;50.860;13.466;2022-12-22T10:36:55;12.20;99.90
3194;DHT22;1608;50.860;13.466;2022-12-22T10:39:26;12.10;99.90
3194;DHT22;1608;50.860;13.466;2022-12-22T10:41:55;12.00;99.90
3194;DHT22;1608;50.860;13.466;2022-12-22T10:44:27;11.90;99.90
3194;DHT22;1608;50.860;13.466;2022-12-22T10:46:55;11.80;99.90
3194;DHT22;1608;50.860;13.466;2022-12-22T10:49:26;11.80;99.90
3194;DHT22;1608;50.860;13.466;2022-12-22T10:51:55;11.70;99.90
3194;DHT22;1608;50.860;13.466;2022-12-22T10:54:28;11.60;99.90
3194;DHT22;1608;50.860;13.466;2022-12-22T10:57:05;11.60;99.90
3194;DHT22;1608;50.860;13.466;2022-12-22T10:59:32;11.50;99.90
3194;DHT22;1608;50.860;13.466;2022-12-22T11:02:23;11.50;99.90
3194;DHT22;1608;50.860;13.466;2022-12-22T11:04:53;11.60;99.90
3194;DHT22;1608;50.860;13.466;2022-12-22T11:07:20;11.50;99.90
3194;DHT22;1608;50.860;13.466;2022-12-22T11:09:47;11.40;99.90
3194;DHT22;1608;50.860;13.466;2022-12-22T11:12:21;11.50;99.90
3194;DHT22;1608;50.860;13.466;2022-12-22T11:14:55;11.60;99.90
3194;DHT22;1608;50.860;13.466;2022-12-22T11:17:29;11.70;99.90
3194;DHT22;1608;50.860;13.466;2022-12-22T11:20:12;11.80;99.90
3194;DHT22;1608;50.860;13.466;2022-12-22T11:22:51;11.80;99.90
3194;DHT22;1608;50.860;13.466;2022-12-22T11:25:27;12.00;99.90
3194;DHT22;1608;50.860;13.466;2022-12-22T11:28:07;11.90;99.90
3194;DHT22;1608;50.860;13.466;2022-12-22T11:30:47;12.00;99.90
3194;DHT22;1608;50.860;13.466;2022-12-22T11:33:25;12.00;99.90
3194;DHT22;1608;50.860;13.466;2022-12-22T11:36:00;12.20;99.90
3194;DHT22;1608;50.860;13.466;2022-12-22T11:38:37;12.30;99.90
3194;DHT22;1608;50.860;13.466;2022-12-22T11:41:20;12.60;99.90
3194;DHT22;1608;50.860;13.466;2022-12-22T11:43:57;12.70;99.90
3194;DHT22;1608;50.860;13.466;2022-12-22T11:46:30;12.80;99.90
3194;DHT22;1608;50.860;13.466;2022-12-22T11:49:14;12.80;99.90
3194;DHT22;1608;50.860;13.466;2022-12-22T11:52:08;12.70;99.90
3194;DHT22;1608;50.860;13.466;2022-12-22T11:54:47;12.80;99.90
3194;DHT22;1608;50.860;13.466;2022-12-22T11:57:21;12.90;99.90
3194;DHT22;1608;50.860;13.466;2022-12-22T11:59:57;12.80;99.90
3194;DHT22;1608;50.860;13.466;2022-12-22T12:08:28;12.90;99.90
3194;DHT22;1608;50.860;13.466;2022-12-22T12:11:07;13.10;99.90
3194;DHT22;1608;50.860;13.466;2022-12-22T12:13:48;13.40;99.90
3194;DHT22;1608;50.860;13.466;2022-12-22T12:16:22;13.30;99.90
3194;DHT22;1608;50.860;13.466;2022-12-22T12:19:01;13.40;99.90
3194;DHT22;1608;50.860;13.466;2022-12-22T12:21:41;13.50;99.90
3194;DHT22;1608;50.860;13.466;2022-12-22T12:24:34;13.40;99.90
3194;DHT22;1608;50.860;13.466;2022-12-22T12:27:11;13.30;99.90
3194;DHT22;1608;50.860;13.466;2022-12-22T12:29:49;13.30;99.90
3194;DHT22;1608;50.860;13.466;2022-12-22T12:32:24;13.20;99.90
3194;DHT22;1608;50.860;13.466;2022-12-22T12:34:58;13.20;99.90
3194;DHT22;1608;50.860;13.466;2022-12-22T12:37:29;13.20;99.90
3194;DHT22;1608;50.860;13.466;2022-12-22T12:40:10;13.10;99.90
3194;DHT22;1608;50.860;13.466;2022-12-22T12:42:47;13.20;99.90
3194;DHT22;1608;50.860;13.466;2022-12-22T12:45:35;13.10;99.90
3194;DHT22;1608;50.860;13.466;2022-12-22T12:48:39;13.10;99.90
3194;DHT22;1608;50.860;13.466;2022-12-22T12:51:44;13.10;99.90
3194;DHT22;1608;50.860;13.466;2022-12-22T12:59:59;12.90;99.90
3194;DHT22;1608;50.860;13.466;2022-12-22T13:02:54;12.90;99.90
3194;DHT22;1608;50.860;13.466;2022-12-22T13:05:28;13.00;99.90
3194;DHT22;1608;50.860;13.466;2022-12-22T13:08:12;13.00;99.90
3194;DHT22;1608;50.860;13.466;2022-12-22T13:10:42;13.00;99.90
3194;DHT22;1608;50.860;13.466;2022-12-22T13:13:11;13.00;99.90
3194;DHT22;1608;50.860;13.466;2022-12-22T13:15:41;12.90;99.90
3194;DHT22;1608;50.860;13.466;2022-12-22T13:18:39;12.90;99.90
3194;DHT22;1608;50.860;13.466;2022-12-22T13:21:12;12.70;99.90
3194;DHT22;1608;50.860;13.466;2022-12-22T13:23:41;12.70;99.90
3194;DHT22;1608;50.860;13.466;2022-12-22T13:26:11;12.70;99.90
3194;DHT22;1608;50.860;13.466;2022-12-22T13:28:41;12.70;99.90
3194;DHT22;1608;50.860;13.466;2022-12-22T13:31:17;12.70;99.90
3194;DHT22;1608;50.860;13.466;2022-12-22T13:33:45;12.50;99.90
3194;DHT22;1608;50.860;13.466;2022-12-22T13:36:17;12.40;99.90
3194;DHT22;1608;50.860;13.466;2022-12-22T13:38:45;12.30;99.90
3194;DHT22;1608;50.860;13.466;2022-12-22T13:41:14;12.30;99.90
3194;DHT22;1608;50.860;13.466;2022-12-22T13:43:42;12.20;99.90
3194;DHT22;1608;50.860;13.466;2022-12-22T13:46:10;12.20;99.90
3194;DHT22;1608;50.860;13.466;2022-12-22T13:48:40;12.20;99.90
3194;DHT22;1608;50.860;13.466;2022-12-22T13:51:12;12.10;99.90
3194;DHT22;1608;50.860;13.466;2022-12-22T13:53:44;12.10;99.90
3194;DHT22;1608;50.860;13.466;2022-12-22T13:56:15;12.10;99.90
3194;DHT22;1608;50.860;13.466;2022-12-22T13:58:44;12.00;99.90
3194;DHT22;1608;50.860;13.466;2022-12-22T14:01:14;12.00;99.90
3194;DHT22;1608;50.860;13.466;2022-12-22T14:03:48;12.00;99.90
3194;DHT22;1608;50.860;13.466;2022-12-22T14:06:24;12.30;99.90
3194;DHT22;1608;50.860;13.466;2022-12-22T14:08:51;11.90;99.90
3194;DHT22;1608;50.860;13.466;2022-12-22T14:11:18;11.90;99.90
3194;DHT22;1608;50.860;13.466;2022-12-22T14:13:45;11.90;99.90
3194;DHT22;1608;50.860;13.466;2022-12-22T14:16:14;11.90;99.90
3194;DHT22;1608;50.860;13.466;2022-12-22T14:18:41;12.00;99.90
3194;DHT22;1608;50.860;13.466;2022-12-22T14:21:09;12.00;99.90
3194;DHT22;1608;50.860;13.466;2022-12-22T14:23:38;12.00;99.90
3194;DHT22;1608;50.860;13.466;2022-12-22T14:26:07;12.20;99.90
3194;DHT22;1608;50.860;13.466;2022-12-22T14:28:41;12.20;99.90
3194;DHT22;1608;50.860;13.466;2022-12-22T14:31:15;12.30;99.90
3194;DHT22;1608;50.860;13.466;2022-12-22T14:33:50;12.30;99.90
3194;DHT22;1608;50.860;13.466;2022-12-22T14:36:20;12.40;99.90
3194;DHT22;1608;50.860;13.466;2022-12-22T14:38:50;12.40;99.90
3194;DHT22;1608;50.860;13.466;2022-12-22T14:41:22;12.40;99.90
3194;DHT22;1608;50.860;13.466;2022-12-22T14:44:12;12.40;99.90
3194;DHT22;1608;50.860;13.466;2022-12-22T14:46:40;12.30;99.90
3194;DHT22;1608;50.860;13.466;2022-12-22T14:49:12;12.30;99.90
3194;DHT22;1608;50.860;13.466;2022-12-22T14:51:41;12.20;99.90
3194;DHT22;1608;50.860;13.466;2022-12-22T14:54:18;12.20;99.90
3194;DHT22;1608;50.860;13.466;2022-12-22T14:56:47;12.20;99.90
3194;DHT22;1608;50.860;13.466;2022-12-22T14:59:23;12.20;99.90
3194;DHT22;1608;50.860;13.466;2022-12-22T15:01:58;12.20;99.90
3194;DHT22;1608;50.860;13.466;2022-12-22T15:04:25;12.10;99.90
3194;DHT22;1608;50.860;13.466;2022-12-22T15:07:03;12.10;99.90
3194;DHT22;1608;50.860;13.466;2022-12-22T15:09:30;12.00;99.90
3194;DHT22;1608;50.860;13.466;2022-12-22T15:12:03;11.90;99.90
3194;DHT22;1608;50.860;13.466;2022-12-22T15:14:34;11.90;99.90
3194;DHT22;1608;50.860;13.466;2022-12-22T15:17:02;11.80;99.90
3194;DHT22;1608;50.860;13.466;2022-12-22T15:21:59;11.80;99.90
3194;DHT22;1608;50.860;13.466;2022-12-22T15:24:26;11.80;99.90
3194;DHT22;1608;50.860;13.466;2022-12-22T15:26:54;11.70;99.90
3194;DHT22;1608;50.860;13.466;2022-12-22T15:29:21;11.80;99.90
3194;DHT22;1608;50.860;13.466;2022-12-22T15:31:47;11.80;99.90
3194;DHT22;1608;50.860;13.466;2022-12-22T15:34:21;11.90;99.90
3194;DHT22;1608;50.860;13.466;2022-12-22T15:36:48;11.80;99.90
3194;DHT22;1608;50.860;13.466;2022-12-22T15:39:17;11.80;99.90
3194;DHT22;1608;50.860;13.466;2022-12-22T15:41:45;11.80;99.90
3194;DHT22;1608;50.860;13.466;2022-12-22T15:44:12;11.90;99.90
3194;DHT22;1608;50.860;13.466;2022-12-22T15:46:41;11.90;99.90
3194;DHT22;1608;50.860;13.466;2022-12-22T15:49:12;11.90;99.90
3194;DHT22;1608;50.860;13.466;2022-12-22T15:51:40;11.90;99.90
3194;DHT22;1608;50.860;13.466;2022-12-22T15:54:11;12.00;99.90
3194;DHT22;1608;50.860;13.466;2022-12-22T15:56:41;12.00;99.90
3194;DHT22;1608;50.860;13.466;2022-12-22T15:59:14;12.00;99.90
3194;DHT22;1608;50.860;13.466;2022-12-22T16:01:42;12.00;99.90
3194;DHT22;1608;50.860;13.466;2022-12-22T16:04:09;12.00;99.90
3194;DHT22;1608;50.860;13.466;2022-12-22T16:06:36;12.00;99.90
3194;DHT22;1608;50.860;13.466;2022-12-22T16:09:06;11.90;99.90
3194;DHT22;1608;50.860;13.466;2022-12-22T16:11:36;11.90;99.90
3194;DHT22;1608;50.860;13.466;2022-12-22T16:14:04;11.90;99.90
3194;DHT22;1608;50.860;13.466;2022-12-22T16:16:31;11.90;99.90
3194;DHT22;1608;50.860;13.466;2022-12-22T16:18:58;12.10;99.90
3194;DHT22;1608;50.860;13.466;2022-12-22T16:21:29;12.10;99.90
3194;DHT22;1608;50.860;13.466;2022-12-22T16:23:56;12.20;99.90
3194;DHT22;1608;50.860;13.466;2022-12-22T16:26:25;12.40;99.90
3194;DHT22;1608;50.860;13.466;2022-12-22T16:28:53;12.50;99.90
3194;DHT22;1608;50.860;13.466;2022-12-22T16:31:23;12.60;99.90
3194;DHT22;1608;50.860;13.466;2022-12-22T16:33:50;12.60;99.90
3194;DHT22;1608;50.860;13.466;2022-12-22T16:36:18;12.70;99.90
3194;DHT22;1608;50.860;13.466;2022-12-22T16:38:45;12.70;99.90
3194;DHT22;1608;50.860;13.466;2022-12-22T16:41:18;12.70;99.90
3194;DHT22;1608;50.860;13.466;2022-12-22T16:43:47;12.70;99.90
3194;DHT22;1608;50.860;13.466;2022-12-22T16:46:16;12.80;99.90
3194;DHT22;1608;50.860;13.466;2022-12-22T16:48:47;12.80;99.90
3194;DHT22;1608;50.860;13.466;2022-12-22T16:51:17;12.80;99.90